sensor_id;sensor_type;location;lat;lon;timestamp;pressure;altitude;pressure_sealevel;temperature;humidity
63088;BME280;49173;43.164;27.786;2023-03-23T00:01:39;100585.28;;;8.39;100.00
63088;BME280;49173;43.164;27.786;2023-03-23T00:04:05;100579.09;;;8.37;100.00
63088;BME280;49173;43.164;27.786;2023-03-23T00:06:31;100585.38;;;8.36;100.00
63088;BME280;49173;43.164;27.786;2023-03-23T00:08:58;100577.28;;;8.38;100.00
63088;BME280;49173;43.164;27.786;2023-03-23T00:11:27;100578.16;;;8.38;100.00
63088;BME280;49173;43.164;27.786;2023-03-23T00:13:58;100576.53;;;8.34;100.00
63088;BME280;49173;43.164;27.786;2023-03-23T00:16:31;100576.50;;;8.36;100.00
63088;BME280;49173;43.164;27.786;2023-03-23T00:19:02;100575.56;;;8.37;100.00
63088;BME280;49173;43.164;27.786;2023-03-23T00:21:31;100582.72;;;8.36;100.00
63088;BME280;49173;43.164;27.786;2023-03-23T00:24:15;100576.41;;;8.37;100.00
63088;BME280;49173;43.164;27.786;2023-03-23T00:26:44;100567.63;;;8.34;100.00
63088;BME280;49173;43.164;27.786;2023-03-23T00:29:16;100571.19;;;8.34;100.00
63088;BME280;49173;43.164;27.786;2023-03-23T00:31:43;100562.41;;;8.31;100.00
63088;BME280;49173;43.164;27.786;2023-03-23T00:34:15;100565.06;;;8.31;100.00
63088;BME280;49173;43.164;27.786;2023-03-23T00:36:53;100573.97;;;8.31;100.00
63088;BME280;49173;43.164;27.786;2023-03-23T00:39:23;100571.44;;;8.28;100.00
63088;BME280;49173;43.164;27.786;2023-03-23T00:41:56;100571.50;;;8.26;100.00
63088;BME280;49173;43.164;27.786;2023-03-23T00:44:28;100575.13;;;8.25;100.00
63088;BME280;49173;43.164;27.786;2023-03-23T00:46:54;100571.44;;;8.28;100.00
63088;BME280;49173;43.164;27.786;2023-03-23T00:49:24;100568.84;;;8.26;100.00
63088;BME280;49173;43.164;27.786;2023-03-23T00:51:54;100560.81;;;8.26;100.00
63088;BME280;49173;43.164;27.786;2023-03-23T00:54:24;100557.28;;;8.26;100.00
63088;BME280;49173;43.164;27.786;2023-03-23T00:56:51;100564.34;;;8.27;100.00
63088;BME280;49173;43.164;27.786;2023-03-23T00:59:18;100563.47;;;8.26;100.00
63088;BME280;49173;43.164;27.786;2023-03-23T01:01:44;100548.38;;;8.25;100.00
63088;BME280;49173;43.164;27.786;2023-03-23T01:04:10;100549.25;;;8.26;100.00
63088;BME280;49173;43.164;27.786;2023-03-23T01:06:39;100550.22;;;8.23;100.00
63088;BME280;49173;43.164;27.786;2023-03-23T01:09:07;100551.09;;;8.24;100.00
63088;BME280;49173;43.164;27.786;2023-03-23T01:11:34;100547.56;;;8.23;100.00
63088;BME280;49173;43.164;27.786;2023-03-23T01:14:01;100542.22;;;8.23;100.00
63088;BME280;49173;43.164;27.786;2023-03-23T01:16:27;100552.91;;;8.23;100.00
63088;BME280;49173;43.164;27.786;2023-03-23T01:18:54;100550.31;;;8.22;100.00
63088;BME280;49173;43.164;27.786;2023-03-23T01:21:21;100559.13;;;8.24;100.00
63088;BME280;49173;43.164;27.786;2023-03-23T01:23:47;100551.09;;;8.24;100.00
63088;BME280;49173;43.164;27.786;2023-03-23T01:26:18;100544.88;;;8.23;100.00
63088;BME280;49173;43.164;27.786;2023-03-23T01:28:45;100547.56;;;8.23;100.00
63088;BME280;49173;43.164;27.786;2023-03-23T01:31:14;100546.69;;;8.23;100.00
63088;BME280;49173;43.164;27.786;2023-03-23T01:33:42;100552.03;;;8.23;100.00
63088;BME280;49173;43.164;27.786;2023-03-23T01:39:00;100548.41;;;8.24;100.00
63088;BME280;49173;43.164;27.786;2023-03-23T01:41:30;100552.19;;;8.20;100.00
63088;BME280;49173;43.164;27.786;2023-03-23T01:44:00;100546.94;;;8.17;100.00
63088;BME280;49173;43.164;27.786;2023-03-23T01:46:32;100561.06;;;8.20;100.00
63088;BME280;49173;43.164;27.786;2023-03-23T01:49:06;100548.75;;;8.16;100.00
63088;BME280;49173;43.164;27.786;2023-03-23T01:51:38;100560.31;;;8.17;100.00
63088;BME280;49173;43.164;27.786;2023-03-23T01:54:09;100556.78;;;8.16;100.00
63088;BME280;49173;43.164;27.786;2023-03-23T01:56:43;100548.72;;;8.18;100.00
63088;BME280;49173;43.164;27.786;2023-03-23T01:59:11;100552.38;;;8.15;100.00
63088;BME280;49173;43.164;27.786;2023-03-23T02:01:39;100560.44;;;8.14;100.00
63088;BME280;49173;43.164;27.786;2023-03-23T02:04:13;100556.91;;;8.13;100.00
63088;BME280;49173;43.164;27.786;2023-03-23T02:06:41;100555.91;;;8.16;100.00
63088;BME280;49173;43.164;27.786;2023-03-23T02:09:08;100558.56;;;8.16;100.00
63088;BME280;49173;43.164;27.786;2023-03-23T02:11:35;100552.28;;;8.17;100.00
63088;BME280;49173;43.164;27.786;2023-03-23T02:14:20;100563.84;;;8.17;100.00
63088;BME280;49173;43.164;27.786;2023-03-23T02:19:49;100562.88;;;8.20;100.00
63088;BME280;49173;43.164;27.786;2023-03-23T02:34:20;100559.09;;;8.04;100.00
63088;BME280;49173;43.164;27.786;2023-03-23T02:36:55;100564.38;;;8.05;100.00
63088;BME280;49173;43.164;27.786;2023-03-23T02:39:48;100565.09;;;8.09;100.00
63088;BME280;49173;43.164;27.786;2023-03-23T02:42:18;100564.13;;;8.11;100.00
63088;BME280;49173;43.164;27.786;2023-03-23T02:44:46;100565.88;;;8.12;100.00
63088;BME280;49173;43.164;27.786;2023-03-23T02:47:38;100567.72;;;8.10;100.00
63088;BME280;49173;43.164;27.786;2023-03-23T02:50:09;100570.59;;;8.06;100.00
63088;BME280;49173;43.164;27.786;2023-03-23T02:52:37;100572.25;;;8.08;100.00
63088;BME280;49173;43.164;27.786;2023-03-23T02:55:05;100578.47;;;8.09;100.00
63088;BME280;49173;43.164;27.786;2023-03-23T02:57:32;100572.19;;;8.10;100.00
63088;BME280;49173;43.164;27.786;2023-03-23T02:59:59;100574.81;;;8.11;100.00
63088;BME280;49173;43.164;27.786;2023-03-23T03:02:28;100575.81;;;8.09;100.00
63088;BME280;49173;43.164;27.786;2023-03-23T03:10:26;100583.56;;;8.15;100.00
63088;BME280;49173;43.164;27.786;2023-03-23T03:18:56;100583.50;;;8.16;100.00
63088;BME280;49173;43.164;27.786;2023-03-23T03:21:26;100583.50;;;8.16;100.00
63088;BME280;49173;43.164;27.786;2023-03-23T03:23:56;100576.31;;;8.18;100.00
63088;BME280;49173;43.164;27.786;2023-03-23T03:26:29;100581.66;;;8.18;100.00
63088;BME280;49173;43.164;27.786;2023-03-23T03:28:56;100578.91;;;8.20;100.00
63088;BME280;49173;43.164;27.786;2023-03-23T03:31:43;100587.81;;;8.20;100.00
63088;BME280;49173;43.164;27.786;2023-03-23T03:34:11;100588.81;;;8.18;100.00
63088;BME280;49173;43.164;27.786;2023-03-23T03:36:40;100587.97;;;8.16;100.00
63088;BME280;49173;43.164;27.786;2023-03-23T03:39:08;100591.59;;;8.15;100.00
63088;BME280;49173;43.164;27.786;2023-03-23T03:41:36;100592.47;;;8.15;100.00
63088;BME280;49173;43.164;27.786;2023-03-23T03:44:22;100591.59;;;8.15;100.00
63088;BME280;49173;43.164;27.786;2023-03-23T03:46:48;100589.72;;;8.17;100.00
63088;BME280;49173;43.164;27.786;2023-03-23T03:49:15;100595.13;;;8.15;100.00
63088;BME280;49173;43.164;27.786;2023-03-23T03:51:41;100590.66;;;8.16;100.00
63088;BME280;49173;43.164;27.786;2023-03-23T03:54:08;100600.41;;;8.17;100.00
63088;BME280;49173;43.164;27.786;2023-03-23T03:56:34;100589.78;;;8.15;100.00
63088;BME280;49173;43.164;27.786;2023-03-23T03:59:18;100598.69;;;8.16;100.00
63088;BME280;49173;43.164;27.786;2023-03-23T04:01:44;100596.00;;;8.16;100.00
63088;BME280;49173;43.164;27.786;2023-03-23T04:04:25;100601.41;;;8.14;100.00
63088;BME280;49173;43.164;27.786;2023-03-23T04:07:11;100598.81;;;8.13;100.00
63088;BME280;49173;43.164;27.786;2023-03-23T04:09:48;100606.75;;;8.14;100.00
63088;BME280;49173;43.164;27.786;2023-03-23T04:12:15;100604.03;;;8.16;100.00
63088;BME280;49173;43.164;27.786;2023-03-23T04:14:41;100602.28;;;8.15;100.00
63088;BME280;49173;43.164;27.786;2023-03-23T04:17:07;100609.38;;;8.16;100.00
63088;BME280;49173;43.164;27.786;2023-03-23T04:19:35;100607.56;;;8.16;100.00
63088;BME280;49173;43.164;27.786;2023-03-23T04:22:03;100606.69;;;8.16;100.00
63088;BME280;49173;43.164;27.786;2023-03-23T04:24:30;100607.63;;;8.15;100.00
63088;BME280;49173;43.164;27.786;2023-03-23T04:26:59;100599.69;;;8.13;100.00
63088;BME280;49173;43.164;27.786;2023-03-23T04:29:25;100608.56;;;8.14;100.00
63088;BME280;49173;43.164;27.786;2023-03-23T04:31:52;100611.25;;;8.14;100.00
63088;BME280;49173;43.164;27.786;2023-03-23T04:34:18;100613.06;;;8.13;100.00
63088;BME280;49173;43.164;27.786;2023-03-23T04:36:44;100611.25;;;8.14;100.00
63088;BME280;49173;43.164;27.786;2023-03-23T04:39:12;100620.19;;;8.13;100.00
63088;BME280;49173;43.164;27.786;2023-03-23T04:41:39;100619.25;;;8.14;100.00
63088;BME280;49173;43.164;27.786;2023-03-23T04:44:06;100612.19;;;8.13;100.00
63088;BME280;49173;43.164;27.786;2023-03-23T04:46:32;100618.31;;;8.15;100.00
63088;BME280;49173;43.164;27.786;2023-03-23T04:48:58;100621.88;;;8.15;100.00
63088;BME280;49173;43.164;27.786;2023-03-23T04:51:44;100621.00;;;8.15;100.00
63088;BME280;49173;43.164;27.786;2023-03-23T04:54:11;100623.59;;;8.16;100.00
63088;BME280;49173;43.164;27.786;2023-03-23T04:56:38;100625.34;;;8.17;100.00
63088;BME280;49173;43.164;27.786;2023-03-23T04:59:04;100620.94;;;8.16;100.00
63088;BME280;49173;43.164;27.786;2023-03-23T05:01:33;100628.00;;;8.17;100.00
63088;BME280;49173;43.164;27.786;2023-03-23T05:04:02;100630.59;;;8.20;100.00
63088;BME280;49173;43.164;27.786;2023-03-23T05:06:28;100643.06;;;8.20;100.00
63088;BME280;49173;43.164;27.786;2023-03-23T05:08:55;100639.47;;;8.21;100.00
63088;BME280;49173;43.164;27.786;2023-03-23T05:11:21;100637.59;;;8.23;100.00
63088;BME280;49173;43.164;27.786;2023-03-23T05:13:47;100642.94;;;8.23;100.00
63088;BME280;49173;43.164;27.786;2023-03-23T05:16:13;100642.88;;;8.24;100.00
63088;BME280;49173;43.164;27.786;2023-03-23T05:18:39;100635.75;;;8.25;100.00
63088;BME280;49173;43.164;27.786;2023-03-23T05:21:05;100641.91;;;8.27;100.00
63088;BME280;49173;43.164;27.786;2023-03-23T05:23:31;100646.31;;;8.28;100.00
63088;BME280;49173;43.164;27.786;2023-03-23T05:25:59;100646.31;;;8.28;100.00
63088;BME280;49173;43.164;27.786;2023-03-23T05:28:28;100652.41;;;8.32;100.00
63088;BME280;49173;43.164;27.786;2023-03-23T05:30:56;100652.28;;;8.35;100.00
63088;BME280;49173;43.164;27.786;2023-03-23T05:33:23;100655.78;;;8.37;100.00
63088;BME280;49173;43.164;27.786;2023-03-23T05:36:07;100668.19;;;8.39;100.00
63088;BME280;49173;43.164;27.786;2023-03-23T05:38:36;100665.34;;;8.42;100.00
63088;BME280;49173;43.164;27.786;2023-03-23T05:41:04;100667.09;;;8.43;100.00
63088;BME280;49173;43.164;27.786;2023-03-23T05:43:29;100668.84;;;8.44;100.00
63088;BME280;49173;43.164;27.786;2023-03-23T05:45:55;100668.72;;;8.47;100.00
63088;BME280;49173;43.164;27.786;2023-03-23T05:48:21;100674.88;;;8.49;100.00
63088;BME280;49173;43.164;27.786;2023-03-23T05:50:47;100681.03;;;8.51;100.00
63088;BME280;49173;43.164;27.786;2023-03-23T05:53:12;100680.09;;;8.52;100.00
63088;BME280;49173;43.164;27.786;2023-03-23T05:55:38;100683.59;;;8.55;100.00
63088;BME280;49173;43.164;27.786;2023-03-23T05:58:04;100680.91;;;8.55;100.00
63088;BME280;49173;43.164;27.786;2023-03-23T06:00:30;100682.66;;;8.56;100.00
63088;BME280;49173;43.164;27.786;2023-03-23T06:02:56;100684.31;;;8.58;100.00
63088;BME280;49173;43.164;27.786;2023-03-23T06:05:22;100681.56;;;8.60;100.00
63088;BME280;49173;43.164;27.786;2023-03-23T06:07:49;100688.69;;;8.61;100.00
63088;BME280;49173;43.164;27.786;2023-03-23T06:10:15;100681.47;;;8.63;100.00
63088;BME280;49173;43.164;27.786;2023-03-23T06:12:42;100682.25;;;8.65;100.00
63088;BME280;49173;43.164;27.786;2023-03-23T06:15:09;100686.56;;;8.69;100.00
63088;BME280;49173;43.164;27.786;2023-03-23T06:17:35;100686.47;;;8.70;100.00
63088;BME280;49173;43.164;27.786;2023-03-23T06:20:03;100689.91;;;8.74;100.00
63088;BME280;49173;43.164;27.786;2023-03-23T06:22:30;100691.59;;;8.76;100.00
63088;BME280;49173;43.164;27.786;2023-03-23T06:24:55;100694.19;;;8.78;100.00
63088;BME280;49173;43.164;27.786;2023-03-23T06:27:23;100708.38;;;8.80;100.00
63088;BME280;49173;43.164;27.786;2023-03-23T06:29:49;100702.09;;;8.81;100.00
63088;BME280;49173;43.164;27.786;2023-03-23T06:32:15;100702.91;;;8.83;100.00
63088;BME280;49173;43.164;27.786;2023-03-23T06:34:40;100704.63;;;8.84;100.00
63088;BME280;49173;43.164;27.786;2023-03-23T06:37:10;100708.19;;;8.85;100.00
63088;BME280;49173;43.164;27.786;2023-03-23T06:39:36;100705.44;;;8.86;100.00
63088;BME280;49173;43.164;27.786;2023-03-23T06:42:03;100711.63;;;8.88;100.00
63088;BME280;49173;43.164;27.786;2023-03-23T06:44:30;100710.13;;;8.81;100.00
63088;BME280;49173;43.164;27.786;2023-03-23T06:46:56;100718.19;;;8.79;100.00
63088;BME280;49173;43.164;27.786;2023-03-23T06:49:22;100715.53;;;8.79;100.00
63088;BME280;49173;43.164;27.786;2023-03-23T06:51:48;100719.03;;;8.82;100.00
63088;BME280;49173;43.164;27.786;2023-03-23T06:54:15;100721.09;;;8.75;100.00
63088;BME280;49173;43.164;27.786;2023-03-23T06:56:41;100729.78;;;8.80;100.00
63088;BME280;49173;43.164;27.786;2023-03-23T06:59:07;100729.53;;;8.86;99.74
63088;BME280;49173;43.164;27.786;2023-03-23T07:01:34;100728.47;;;8.90;100.00
63088;BME280;49173;43.164;27.786;2023-03-23T07:04:02;100728.31;;;8.93;100.00
63088;BME280;49173;43.164;27.786;2023-03-23T07:06:28;100726.34;;;8.98;99.92
63088;BME280;49173;43.164;27.786;2023-03-23T07:08:54;100726.19;;;9.01;99.74
63088;BME280;49173;43.164;27.786;2023-03-23T07:11:21;100729.63;;;9.05;99.57
63088;BME280;49173;43.164;27.786;2023-03-23T07:13:47;100729.53;;;9.06;99.49
63088;BME280;49173;43.164;27.786;2023-03-23T07:16:13;100734.03;;;9.06;99.22
63088;BME280;49173;43.164;27.786;2023-03-23T07:18:39;100734.19;;;9.03;98.96
63088;BME280;49173;43.164;27.786;2023-03-23T07:21:06;100730.63;;;9.02;98.58
63088;BME280;49173;43.164;27.786;2023-03-23T07:23:32;100733.09;;;9.07;98.45
63088;BME280;49173;43.164;27.786;2023-03-23T07:25:58;100733.78;;;9.12;98.35
63088;BME280;49173;43.164;27.786;2023-03-23T07:28:30;100733.59;;;9.17;98.42
63088;BME280;49173;43.164;27.786;2023-03-23T07:30:56;100740.53;;;9.21;98.28
63088;BME280;49173;43.164;27.786;2023-03-23T07:33:22;100738.66;;;9.23;98.20
63088;BME280;49173;43.164;27.786;2023-03-23T07:35:48;100743.81;;;9.27;98.38
63088;BME280;49173;43.164;27.786;2023-03-23T07:38:15;100738.28;;;9.32;97.94
63088;BME280;49173;43.164;27.786;2023-03-23T07:40:41;100740.81;;;9.35;97.23
63088;BME280;49173;43.164;27.786;2023-03-23T07:43:07;100732.56;;;9.40;97.25
63088;BME280;49173;43.164;27.786;2023-03-23T07:45:33;100731.38;;;9.47;97.68
63088;BME280;49173;43.164;27.786;2023-03-23T07:47:59;100733.69;;;9.54;97.82
63088;BME280;49173;43.164;27.786;2023-03-23T07:50:26;100731.63;;;9.61;97.44
63088;BME280;49173;43.164;27.786;2023-03-23T07:52:57;100729.72;;;9.63;97.60
63088;BME280;49173;43.164;27.786;2023-03-23T07:55:23;100727.72;;;9.68;97.24
63088;BME280;49173;43.164;27.786;2023-03-23T07:57:51;100740.75;;;9.76;97.08
63088;BME280;49173;43.164;27.786;2023-03-23T08:00:19;100732.53;;;9.80;96.32
63088;BME280;49173;43.164;27.786;2023-03-23T08:02:46;100732.28;;;9.85;95.99
63088;BME280;49173;43.164;27.786;2023-03-23T08:05:14;100739.97;;;9.93;95.98
63088;BME280;49173;43.164;27.786;2023-03-23T08:07:42;100743.41;;;9.96;95.58
63088;BME280;49173;43.164;27.786;2023-03-23T08:10:09;100748.69;;;9.98;94.86
63088;BME280;49173;43.164;27.786;2023-03-23T08:12:39;100741.38;;;10.01;94.77
63088;BME280;49173;43.164;27.786;2023-03-23T08:15:07;100743.75;;;10.07;94.71
63088;BME280;49173;43.164;27.786;2023-03-23T08:17:34;100743.47;;;10.13;95.08
63088;BME280;49173;43.164;27.786;2023-03-23T08:20:01;100753.69;;;10.05;93.67
63088;BME280;49173;43.164;27.786;2023-03-23T08:22:27;100749.13;;;10.07;93.50
63088;BME280;49173;43.164;27.786;2023-03-23T08:24:55;100750.34;;;10.00;92.77
63088;BME280;49173;43.164;27.786;2023-03-23T08:27:20;100758.28;;;10.03;93.18
63088;BME280;49173;43.164;27.786;2023-03-23T08:29:47;100744.41;;;10.12;93.31
63088;BME280;49173;43.164;27.786;2023-03-23T08:32:13;100750.38;;;10.19;92.93
63088;BME280;49173;43.164;27.786;2023-03-23T08:34:40;100749.41;;;10.20;92.47
63088;BME280;49173;43.164;27.786;2023-03-23T08:37:08;100744.13;;;10.18;92.50
63088;BME280;49173;43.164;27.786;2023-03-23T08:39:35;100746.81;;;10.18;91.01
63088;BME280;49173;43.164;27.786;2023-03-23T08:42:00;100745.00;;;10.19;90.64
63088;BME280;49173;43.164;27.786;2023-03-23T08:44:26;100751.06;;;10.24;90.41
63088;BME280;49173;43.164;27.786;2023-03-23T08:46:53;100753.84;;;10.21;90.85
63088;BME280;49173;43.164;27.786;2023-03-23T08:49:23;100751.84;;;10.26;90.72
63088;BME280;49173;43.164;27.786;2023-03-23T08:51:50;100755.09;;;10.33;90.70
63088;BME280;49173;43.164;27.786;2023-03-23T08:54:16;100753.16;;;10.36;90.57
63088;BME280;49173;43.164;27.786;2023-03-23T08:56:43;100756.72;;;10.37;90.05
63088;BME280;49173;43.164;27.786;2023-03-23T08:59:09;100756.75;;;10.35;89.66
63088;BME280;49173;43.164;27.786;2023-03-23T09:01:35;100756.75;;;10.35;89.71
63088;BME280;49173;43.164;27.786;2023-03-23T09:04:01;100758.44;;;10.38;89.91
63088;BME280;49173;43.164;27.786;2023-03-23T09:06:27;100751.78;;;10.28;89.55
63088;BME280;49173;43.164;27.786;2023-03-23T09:08:53;100752.63;;;10.28;89.74
63088;BME280;49173;43.164;27.786;2023-03-23T09:11:21;100749.09;;;10.28;89.39
63088;BME280;49173;43.164;27.786;2023-03-23T09:13:48;100750.91;;;10.27;88.95
63088;BME280;49173;43.164;27.786;2023-03-23T09:16:13;100743.81;;;10.26;88.89
63088;BME280;49173;43.164;27.786;2023-03-23T09:18:40;100750.53;;;10.35;88.86
63088;BME280;49173;43.164;27.786;2023-03-23T09:21:06;100747.44;;;10.44;88.72
63088;BME280;49173;43.164;27.786;2023-03-23T09:23:32;100749.66;;;10.53;89.05
63088;BME280;49173;43.164;27.786;2023-03-23T09:26:02;100752.75;;;10.63;89.88
63088;BME280;49173;43.164;27.786;2023-03-23T09:28:29;100751.44;;;10.71;89.52
63088;BME280;49173;43.164;27.786;2023-03-23T09:30:56;100755.78;;;10.74;88.88
63088;BME280;49173;43.164;27.786;2023-03-23T09:33:23;100744.31;;;10.70;88.60
63088;BME280;49173;43.164;27.786;2023-03-23T09:35:49;100751.28;;;10.75;87.59
63088;BME280;49173;43.164;27.786;2023-03-23T09:38:15;100747.66;;;10.76;87.02
63088;BME280;49173;43.164;27.786;2023-03-23T09:40:48;100749.25;;;10.80;88.25
63088;BME280;49173;43.164;27.786;2023-03-23T09:43:24;100749.88;;;10.85;87.78
63088;BME280;49173;43.164;27.786;2023-03-23T09:48:51;100750.13;;;10.80;86.37
63088;BME280;49173;43.164;27.786;2023-03-23T09:53:56;100747.69;;;10.93;84.60
63088;BME280;49173;43.164;27.786;2023-03-23T09:56:25;100752.13;;;10.94;84.08
63088;BME280;49173;43.164;27.786;2023-03-23T10:01:44;100748.88;;;11.05;83.42
63088;BME280;49173;43.164;27.786;2023-03-23T10:07:25;100739.63;;;11.10;81.51
63088;BME280;49173;43.164;27.786;2023-03-23T10:09:54;100733.97;;;11.16;81.01
63088;BME280;49173;43.164;27.786;2023-03-23T10:15:20;100735.75;;;11.33;81.03
63088;BME280;49173;43.164;27.786;2023-03-23T10:18:12;100733.47;;;11.43;81.38
63088;BME280;49173;43.164;27.786;2023-03-23T10:26:19;100738.81;;;11.60;81.53
63088;BME280;49173;43.164;27.786;2023-03-23T10:28:52;100731.19;;;11.68;79.79
63088;BME280;49173;43.164;27.786;2023-03-23T10:31:28;100730.97;;;11.73;79.89
63088;BME280;49173;43.164;27.786;2023-03-23T10:33:59;100735.72;;;11.85;78.68
63088;BME280;49173;43.164;27.786;2023-03-23T10:39:21;100729.13;;;11.91;76.41
63088;BME280;49173;43.164;27.786;2023-03-23T10:41:48;100720.72;;;11.97;76.66
63088;BME280;49173;43.164;27.786;2023-03-23T10:44:19;100717.34;;;11.93;74.95
63088;BME280;49173;43.164;27.786;2023-03-23T10:46:56;100721.66;;;11.96;74.58
63088;BME280;49173;43.164;27.786;2023-03-23T10:49:36;100715.19;;;12.00;75.50
63088;BME280;49173;43.164;27.786;2023-03-23T10:55:01;100715.91;;;12.19;75.46
63088;BME280;49173;43.164;27.786;2023-03-23T10:57:31;100710.34;;;12.22;75.67
63088;BME280;49173;43.164;27.786;2023-03-23T11:02:56;100700.09;;;12.29;76.48
63088;BME280;49173;43.164;27.786;2023-03-23T11:05:36;100704.69;;;12.43;78.34
63088;BME280;49173;43.164;27.786;2023-03-23T11:08:03;100701.38;;;12.53;78.84
63088;BME280;49173;43.164;27.786;2023-03-23T11:10:37;100692.44;;;12.53;77.34
63088;BME280;49173;43.164;27.786;2023-03-23T11:13:04;100688.88;;;12.52;76.83
63088;BME280;49173;43.164;27.786;2023-03-23T11:15:38;100691.13;;;12.60;76.47
63088;BME280;49173;43.164;27.786;2023-03-23T11:20:53;100687.91;;;12.53;75.03
63088;BME280;49173;43.164;27.786;2023-03-23T11:23:28;100681.75;;;12.51;75.59
63088;BME280;49173;43.164;27.786;2023-03-23T11:26:16;100689.72;;;12.53;75.64
63088;BME280;49173;43.164;27.786;2023-03-23T11:29:03;100685.31;;;12.52;76.15
63088;BME280;49173;43.164;27.786;2023-03-23T11:31:33;100685.16;;;12.55;76.24
63088;BME280;49173;43.164;27.786;2023-03-23T11:34:15;100689.56;;;12.56;75.36
63088;BME280;49173;43.164;27.786;2023-03-23T11:36:58;100689.03;;;12.65;76.45
63088;BME280;49173;43.164;27.786;2023-03-23T11:39:31;100693.97;;;12.73;77.36
63088;BME280;49173;43.164;27.786;2023-03-23T11:45:21;100687.00;;;12.84;77.00
63088;BME280;49173;43.164;27.786;2023-03-23T11:58:45;100681.78;;;12.81;76.41
63088;BME280;49173;43.164;27.786;2023-03-23T12:01:32;100672.66;;;12.84;76.27
63088;BME280;49173;43.164;27.786;2023-03-23T12:04:54;100674.41;;;12.85;76.91
63088;BME280;49173;43.164;27.786;2023-03-23T12:07:26;100672.66;;;12.84;76.76
63088;BME280;49173;43.164;27.786;2023-03-23T12:15:53;100674.44;;;12.99;78.02
63088;BME280;49173;43.164;27.786;2023-03-23T12:20:57;100662.44;;;13.05;78.04
63088;BME280;49173;43.164;27.786;2023-03-23T12:26:43;100668.22;;;13.13;78.28
63088;BME280;49173;43.164;27.786;2023-03-23T12:43:23;100660.88;;;13.01;76.59
63088;BME280;49173;43.164;27.786;2023-03-23T12:46:09;100661.44;;;12.91;75.54
63088;BME280;49173;43.164;27.786;2023-03-23T12:48:46;100665.25;;;12.87;75.98
63088;BME280;49173;43.164;27.786;2023-03-23T12:51:37;100663.53;;;12.86;77.22
63088;BME280;49173;43.164;27.786;2023-03-23T12:57:40;100661.28;;;12.79;77.57
63088;BME280;49173;43.164;27.786;2023-03-23T13:00:48;100654.63;;;12.70;76.83
63088;BME280;49173;43.164;27.786;2023-03-23T13:03:33;100648.53;;;12.67;76.64
63088;BME280;49173;43.164;27.786;2023-03-23T13:08:42;100639.59;;;12.66;77.35
63088;BME280;49173;43.164;27.786;2023-03-23T13:11:36;100642.28;;;12.66;77.83
63088;BME280;49173;43.164;27.786;2023-03-23T13:17:15;100641.94;;;12.72;78.61
63088;BME280;49173;43.164;27.786;2023-03-23T13:23:37;100630.53;;;12.83;79.21
63088;BME280;49173;43.164;27.786;2023-03-23T13:26:20;100629.47;;;12.85;79.39
63088;BME280;49173;43.164;27.786;2023-03-23T13:29:04;100629.09;;;12.91;79.10
63088;BME280;49173;43.164;27.786;2023-03-23T13:31:36;100625.19;;;12.97;79.83
63088;BME280;49173;43.164;27.786;2023-03-23T13:34:23;100635.66;;;13.02;79.37
63088;BME280;49173;43.164;27.786;2023-03-23T13:36:55;100630.47;;;12.99;78.50
63088;BME280;49173;43.164;27.786;2023-03-23T13:44:39;100627.03;;;13.11;77.41
63088;BME280;49173;43.164;27.786;2023-03-23T13:47:28;100624.22;;;13.12;77.39
63088;BME280;49173;43.164;27.786;2023-03-23T13:50:02;100626.06;;;13.12;76.79
63088;BME280;49173;43.164;27.786;2023-03-23T14:00:35;100625.41;;;13.23;76.14
63088;BME280;49173;43.164;27.786;2023-03-23T14:03:26;100626.28;;;13.23;75.80
63088;BME280;49173;43.164;27.786;2023-03-23T14:06:15;100627.16;;;13.24;75.70
63088;BME280;49173;43.164;27.786;2023-03-23T14:08:44;100627.25;;;13.22;75.54
63088;BME280;49173;43.164;27.786;2023-03-23T14:11:21;100633.94;;;13.15;73.91
63088;BME280;49173;43.164;27.786;2023-03-23T14:14:03;100626.63;;;13.17;74.37
63088;BME280;49173;43.164;27.786;2023-03-23T14:16:35;100632.97;;;13.16;74.90
63088;BME280;49173;43.164;27.786;2023-03-23T14:19:04;100629.31;;;13.17;74.52
63088;BME280;49173;43.164;27.786;2023-03-23T14:21:44;100625.75;;;13.16;73.82
63088;BME280;49173;43.164;27.786;2023-03-23T14:24:38;100627.50;;;13.17;73.39
63088;BME280;49173;43.164;27.786;2023-03-23T14:29:30;100626.63;;;13.17;74.70
63088;BME280;49173;43.164;27.786;2023-03-23T14:31:57;100640.09;;;13.17;75.02
63088;BME280;49173;43.164;27.786;2023-03-23T14:34:26;100640.31;;;13.14;75.25
63088;BME280;49173;43.164;27.786;2023-03-23T14:36:54;100635.13;;;13.11;75.35
63088;BME280;49173;43.164;27.786;2023-03-23T14:39:44;100637.00;;;13.09;75.30
63088;BME280;49173;43.164;27.786;2023-03-23T14:42:20;100641.63;;;13.07;75.68
63088;BME280;49173;43.164;27.786;2023-03-23T14:44:49;100649.81;;;13.05;75.60
63088;BME280;49173;43.164;27.786;2023-03-23T14:50:04;100643.84;;;13.00;77.07
63088;BME280;49173;43.164;27.786;2023-03-23T14:52:35;100650.34;;;12.96;77.43
63088;BME280;49173;43.164;27.786;2023-03-23T14:55:20;100645.94;;;12.95;77.95
63088;BME280;49173;43.164;27.786;2023-03-23T14:57:47;100642.56;;;12.91;78.33
63088;BME280;49173;43.164;27.786;2023-03-23T15:00:27;100639.06;;;12.89;78.92
63088;BME280;49173;43.164;27.786;2023-03-23T15:02:58;100637.44;;;12.87;78.91
63088;BME280;49173;43.164;27.786;2023-03-23T15:05:35;100643.09;;;12.82;79.15
63088;BME280;49173;43.164;27.786;2023-03-23T15:08:06;100646.75;;;12.81;78.91
63088;BME280;49173;43.164;27.786;2023-03-23T15:10:33;100650.50;;;12.79;78.94